Ruby Princess — ZCDY2 — position and weather

sailwx.info

Track history (hours):
 
Tides and Currents Weather Stations Pressure Air Temp Water Temp Dewpoint Dewpoint Depression Visibility Wind Speed Wind Dir Waves Ship Positions

Ruby Princess

Last reported at 2018-Jul-22 07:00 UTC. Time now 2018-Jul-22 06:59 UTC.
Position N 48°38' W 125°31'.

Length 289 m; draft 8.7 m.

Type: Ship. MMSI: 310567000.

Date/timePositionNaut miles runAvg speedWind from/ knotsBaromVisibWave heightAir tempDewpointWater temp
2018-Jul-22 07:00N 48°38' W 125°31'1121.8
2018-Jul-22 06:30N 48°33' W 125°17'1121.7
2018-Jul-22 06:00N 48°32' W 125°01'1122.5
2018-Jul-22 05:30N 48°30' W 124°44'1122.2
2018-Jul-22 05:00N 48°26' W 124°28'1121.9
2018-Jul-22 04:30N 48°22' W 124°13'1122.0
2018-Jul-22 04:00N 48°18' W 123°58'1221.6
2018-Jul-22 03:27N 48°16' W 123°40'1220.1
2018-Jul-22 02:50N 48°10' W 123°23'513.4
2018-Jul-22 02:27N 48°11' W 123°15'817.1
2018-Jul-22 02:00N 48°06' W 123°06'7413.7 240 / 201022.810.8 13.011.112.0
2018-Jul-22 01:58N 48°12' W 123°02'1020.5
2018-Jul-22 01:30N 48°11' W 122°47'1019.9
2018-Jul-22 01:00N 48°03' W 122°38'1020.7
2018-Jul-22 00:30N 47°55' W 122°30'1019.9
2018-Jul-22 00:00N 47°45' W 122°26'815.8
2018-Jul-21 23:30N 47°37' W 122°25'1 2.3
2018-Jul-21 22:59N 47°38' W 122°23'0 0.0
2018-Jul-21 22:29N 47°38' W 122°23'0 0.0
2018-Jul-21 21:58N 47°38' W 122°23'0 0.0
2018-Jul-21 21:28N 47°38' W 122°23'0 0.0
2018-Jul-21 20:58N 47°38' W 122°23'0 0.0
2018-Jul-21 20:28N 47°38' W 122°23'0 0.0
2018-Jul-21 20:01N 47°38' W 122°23'0 0.0
2018-Jul-21 19:30N 47°38' W 122°23'0 0.0
2018-Jul-21 19:00N 47°38' W 122°23'0 0.0
2018-Jul-21 18:30N 47°38' W 122°23'0 0.0
2018-Jul-21 18:00N 47°38' W 122°23'0 0.0
2018-Jul-21 17:29N 47°38' W 122°23'0 0.0
2018-Jul-21 16:59N 47°38' W 122°23'0 0.0
2018-Jul-21 16:29N 47°38' W 122°23'0 0.0
2018-Jul-21 15:59N 47°38' W 122°23'0 0.0
2018-Jul-21 15:29N 47°38' W 122°23'0 0.0
2018-Jul-21 14:58N 47°38' W 122°23'0 0.0
2018-Jul-21 14:28N 47°38' W 122°23'0 0.0
2018-Jul-21 13:58N 47°38' W 122°23'0 0.0
2018-Jul-21 13:28N 47°38' W 122°23'0 0.0
2018-Jul-21 13:00N 47°38' W 122°23'1 3.0
2018-Jul-21 12:30N 47°37' W 122°25'611.3
2018-Jul-21 12:00N 47°43' W 122°27'713.4
2018-Jul-21 11:31N 47°49' W 122°28'714.4
2018-Jul-21 11:01N 47°56' W 122°32'1013.9
2018-Jul-21 10:17N 48°05' W 122°39'713.4
2018-Jul-21 09:47N 48°10' W 122°46'514.4
2018-Jul-21 09:24N 48°11' W 122°54'816.6
2018-Jul-21 08:55N 48°12' W 123°06'717.0
2018-Jul-21 08:29N 48°11' W 123°17'12 9.4
2018-Jul-21 07:15N 48°21' W 123°25'3 0.6
2018-Jul-21 01:23N 48°24' W 123°24'4 9.4
2018-Jul-21 00:59N 48°21' W 123°24'1414.1
2018-Jul-21 00:01N 48°14' W 123°42'520.4
2018-Jul-20 23:47N 48°14' W 123°49'620.5
2018-Jul-20 23:30N 48°14' W 123°57'1020.5
2018-Jul-20 23:00N 48°19' W 124°11'1020.1
2018-Jul-20 22:30N 48°23' W 124°25'918.8
2018-Jul-20 22:00N 48°27' W 124°38'13794.9
2018-Jul-20 22:00N 48°18' W 124°24'2142.5 320 / 151022.310.8 12.510.611.0
2018-Jul-20 21:30N 48°29' W 124°51'918.4
2018-Jul-20 21:00N 48°29' W 125°05'919.1
2018-Jul-20 20:30N 48°32' W 125°18'1122.0
2018-Jul-20 20:00N 48°38' W 125°33'1122.1
2018-Jul-20 19:30N 48°43' W 125°47'1121.7
2018-Jul-20 19:01N 48°49' W 126°01'1121.5
2018-Jul-20 18:30N 48°55' W 126°14'1122.0
2018-Jul-20 18:00N 49°02' W 126°27'1121.9
2018-Jul-20 17:30N 49°08' W 126°41'1122.4
2018-Jul-20 17:00N 49°16' W 126°54'1122.7
2018-Jul-20 16:30N 49°23' W 127°08'1322.2
2018-Jul-20 15:56N 49°31' W 127°23'8122.5
2018-Jul-20 12:20N 50°30' W 128°48'1321.9
2018-Jul-20 11:43N 50°41' W 129°01'522.4
2018-Jul-20 11:29N 50°45' W 129°05'1122.1
2018-Jul-20 11:00N 50°55' W 129°13'1206.3
2018-Jul-20 11:00N 50°54' W 129°12'1224.9 320 / 151024.510.8 15.012.315.0
2018-Jul-20 10:30N 51°05' W 129°20'1121.9
2018-Jul-20 10:00N 51°15' W 129°27'1121.7
2018-Jul-20 09:30N 51°25' W 129°34'1321.5
2018-Jul-20 08:55N 51°37' W 129°43'921.6
2018-Jul-20 08:30N 51°45' W 129°48'11222.4
2018-Jul-20 03:31N 53°27' W 131°01'122.3
2018-Jul-20 03:27N 53°29' W 131°01'1021.9
2018-Jul-20 03:00N 53°39' W 131°01'3249.3
2018-Jul-20 03:00N 53°36' W 131°00'1428.3 290 / 221023.010.8 14.011.213.0
2018-Jul-20 02:30N 53°50' W 131°02'1122.3
2018-Jul-20 02:00N 54°01' W 131°02'1122.6
2018-Jul-20 01:30N 54°12' W 131°03'1122.4
2018-Jul-20 01:00N 54°23' W 131°11'1122.5
2018-Jul-20 00:30N 54°32' W 131°21'1222.3
2018-Jul-19 23:58N 54°42' W 131°32'81 6.2
2018-Jul-19 11:00N 55°54' W 132°36'10913.6 330 / 31023.810.8 12.510.614.0
2018-Jul-19 03:00N 57°18' W 134°42'6019.9 110 / 71022.510.8 12.310.8 9.0
2018-Jul-19 00:00N 58°12' W 135°30'513.2 290 / 51022.5 5.4 13.2 9.912.0
2018-Jul-18 23:35N 58°16' W 135°37'220.7
2018-Jul-18 23:30N 58°17' W 135°40'1019.6
2018-Jul-18 23:01N 58°21' W 135°57'713.0
2018-Jul-18 22:31N 58°27' W 136°00'816.0
2018-Jul-18 22:00N 58°35' W 136°04'918.6
2018-Jul-18 21:30N 58°43' W 136°14'0 0.0
2018-Jul-18 15:07N 58°42' W 136°14'218.0
2018-Jul-18 15:00N 58°41' W 136°11'5379.7
2018-Jul-18 15:00N 58°36' W 136°06'3 6.3 280 / 101020.010.8 10.0 9.010.0
2018-Jul-18 14:30N 58°33' W 136°04'1413.7
2018-Jul-18 13:30N 58°20' W 135°56'611.9
2018-Jul-18 13:00N 58°18' W 135°45'712.6
2018-Jul-18 12:28N 58°16' W 135°34'1811.9
2018-Jul-18 11:00N 58°06' W 135°06'42 1.7 210 / 151019.810.8 12.010.112.0
2018-Jul-17 11:00N 58°48' W 135°06'108 5.1 120 / 81018.810.8 11.811.213.0
2018-Jul-16 14:00N 57°06' W 134°00'4414.7 150 / 121015.7 5.4 11.4 9.4 8.0
2018-Jul-16 11:00N 56°24' W 134°24'16520.6 180 / 201017.8 5.4 11.010.610.0
2018-Jul-16 03:00N 53°42' W 133°30'8220.5 220 / 221021.710.8 14.013.114.0
2018-Jul-15 23:00N 52°30' W 132°24'7022.0 270 / 151023.710.8 15.5 9.815.0
2018-Jul-15 19:48N 51°39' W 131°05'1221.0
2018-Jul-15 19:14N 51°31' W 130°51'522.3
2018-Jul-15 19:00N 51°28' W 130°45'1122.0
2018-Jul-15 18:30N 51°20' W 130°32'1122.5
2018-Jul-15 18:00N 51°13' W 130°19'1122.4
2018-Jul-15 17:30N 51°05' W 130°06'1222.7
2018-Jul-15 16:59N 50°57' W 129°52'1022.2
2018-Jul-15 16:30N 50°50' W 129°40'1223.1
2018-Jul-15 15:58N 50°42' W 129°25'1022.4
2018-Jul-15 15:30N 50°35' W 129°13'1121.8
2018-Jul-15 15:00N 50°27' W 129°00'1122.2
2018-Jul-15 14:30N 50°20' W 128°48'1122.0
2018-Jul-15 14:00N 50°12' W 128°35'1121.8
2018-Jul-15 13:30N 50°05' W 128°22'1121.5
2018-Jul-15 13:00N 49°58' W 128°10'4321.4
2018-Jul-15 11:00N 49°30' W 127°19'160.4
2018-Jul-15 11:00N 49°30' W 127°18'1120.7 290 / 281018.210.8 12.510.611.0
2018-Jul-15 10:29N 49°23' W 127°05'1121.4
2018-Jul-15 09:58N 49°16' W 126°52'1021.8
2018-Jul-15 09:30N 49°10' W 126°40'1121.8
2018-Jul-15 09:00N 49°04' W 126°27'1122.0
2018-Jul-15 08:30N 48°57' W 126°13'1122.1
2018-Jul-15 08:00N 48°51' W 125°60'1122.6
2018-Jul-15 07:30N 48°44' W 125°46'1122.6
2018-Jul-15 07:01N 48°38' W 125°31'1223.4
2018-Jul-15 06:31N 48°31' W 125°17'1223.5
2018-Jul-15 06:00N 48°32' W 124°59'1223.5
2018-Jul-15 05:31N 48°30' W 124°41'1223.8
2018-Jul-15 05:01N 48°26' W 124°25'1223.3
2018-Jul-15 04:31N 48°21' W 124°09'1223.3
2018-Jul-15 04:00N 48°18' W 123°52'1223.3
2018-Jul-15 03:30N 48°16' W 123°35'1117.8
2018-Jul-15 02:52N 48°09' W 123°21'717.8
2018-Jul-15 02:28N 48°11' W 123°12'1019.7
2018-Jul-15 01:56N 48°12' W 122°56'1816.6
2018-Jul-15 00:52N 48°00' W 122°36'718.6
2018-Jul-15 00:30N 47°55' W 122°30'1019.5
2018-Jul-15 00:00N 47°46' W 122°26'917.2
2018-Jul-14 23:30N 47°37' W 122°26'2 4.0
2018-Jul-14 22:59N 47°38' W 122°23'0 0.0
2018-Jul-14 22:29N 47°38' W 122°23'0 0.0
2018-Jul-14 21:59N 47°38' W 122°23'0 0.0
2018-Jul-14 21:29N 47°38' W 122°23'0 0.0
2018-Jul-14 20:59N 47°38' W 122°23'0 0.0
2018-Jul-14 20:28N 47°38' W 122°23'0 0.0
2018-Jul-14 19:58N 47°38' W 122°23'0 0.0
2018-Jul-14 19:28N 47°38' W 122°23'0 0.0
2018-Jul-14 18:58N 47°38' W 122°23'0 0.0
2018-Jul-14 18:31N 47°38' W 122°23'0 0.0
2018-Jul-14 18:00N 47°38' W 122°23'0 0.0
2018-Jul-14 17:30N 47°38' W 122°23'0 0.0
2018-Jul-14 17:00N 47°38' W 122°23'0 0.0
2018-Jul-14 16:30N 47°38' W 122°23'0 0.0
2018-Jul-14 15:59N 47°38' W 122°23'0 0.0
2018-Jul-14 15:29N 47°38' W 122°23'0 0.0
2018-Jul-14 14:59N 47°38' W 122°23'0 0.0
2018-Jul-14 14:26N 47°38' W 122°23'0 0.0
2018-Jul-14 13:28N 47°38' W 122°23'0 0.0
2018-Jul-14 13:00N 47°38' W 122°23'1 2.8
2018-Jul-14 12:30N 47°37' W 122°25'612.0
2018-Jul-14 12:00N 47°43' W 122°28'714.0
2018-Jul-14 11:30N 47°50' W 122°28'714.5
2018-Jul-14 11:00N 47°57' W 122°33'815.7
2018-Jul-14 10:30N 48°03' W 122°39'3 6.7
2018-Jul-14 10:00N 48°06' W 122°42'4408.7 130 / 161019.810.8 12.510.610.0
2018-Jul-14 09:59N 48°10' W 122°46'816.9
2018-Jul-14 09:30N 48°12' W 122°57'816.5
2018-Jul-14 09:00N 48°12' W 123°10'815.5
2018-Jul-14 08:29N 48°10' W 123°22'1112.4
2018-Jul-14 07:37N 48°20' W 123°27'215.4
2018-Jul-14 07:29N 48°22' W 123°25'3 0.6
2018-Jul-14 01:36N 48°25' W 123°24'1 4.2
2018-Jul-14 01:17N 48°24' W 123°25'310.2
2018-Jul-14 00:59N 48°21' W 123°24'1715.8
2018-Jul-13 23:54N 48°14' W 123°47'820.2
2018-Jul-13 23:30N 48°15' W 123°59'1020.2
2018-Jul-13 23:00N 48°19' W 124°13'4250.7
2018-Jul-13 23:00N 48°18' W 124°18'815.8 320 / 201019.710.8 13.012.112.0
2018-Jul-13 22:30N 48°23' W 124°26'1019.8
2018-Jul-13 22:00N 48°28' W 124°40'918.8
2018-Jul-13 21:30N 48°29' W 124°54'1019.5
2018-Jul-13 21:01N 48°29' W 125°08'918.2
2018-Jul-13 20:30N 48°33' W 125°21'1019.1
2018-Jul-13 20:00N 48°38' W 125°33'1121.6
2018-Jul-13 19:30N 48°43' W 125°47'1121.0
2018-Jul-13 19:00N 48°49' W 126°01'1121.4
2018-Jul-13 18:30N 48°55' W 126°14'1121.4
2018-Jul-13 18:00N 49°02' W 126°27'1121.8
2018-Jul-13 17:30N 49°08' W 126°40'1122.1
2018-Jul-13 17:00N 49°15' W 126°54'1122.8
2018-Jul-13 16:31N 49°22' W 127°07'6922.5
2018-Jul-13 13:26N 50°10' W 128°25'2422.4
2018-Jul-13 12:22N 50°29' W 128°47'2222.5
2018-Jul-13 11:24N 50°47' W 129°07'922.0
2018-Jul-13 11:00N 50°54' W 129°13'8495.9
2018-Jul-13 11:00N 50°48' W 129°06'1938.5 340 / 201024.410.8 14.511.714.0
2018-Jul-13 10:30N 51°04' W 129°20'1122.1
2018-Jul-13 10:00N 51°15' W 129°27'1121.9
2018-Jul-13 09:30N 51°24' W 129°35'1122.8
2018-Jul-13 09:00N 51°35' W 129°41'1122.6
2018-Jul-13 08:30N 51°45' W 129°49'1121.9
2018-Jul-13 08:01N 51°55' W 129°56'1122.5
2018-Jul-13 07:30N 52°06' W 130°03'8721.9
2018-Jul-13 03:31N 53°26' W 131°01'122.7
2018-Jul-13 03:28N 53°27' W 131°01'1022.4
2018-Jul-13 03:01N 53°37' W 131°01'1222.7
2018-Jul-13 02:30N 53°49' W 131°02'1122.9
2018-Jul-13 02:00N 54°00' W 131°02'1122.6
2018-Jul-13 01:31N 54°11' W 131°03'1121.4
2018-Jul-13 01:00N 54°21' W 131°10'1121.4
2018-Jul-13 00:29N 54°30' W 131°20'1021.1
2018-Jul-13 00:00N 54°39' W 131°29'1515.2
2018-Jul-12 23:00N 54°54' W 131°36'69 5.7 160 / 111025.1 5.4 14.011.215.0
2018-Jul-12 11:00N 55°54' W 132°36'   050 / 91025.4 5.4 11.5 8.514.0
Track history (hours):
 
Tides and Currents Weather Stations Pressure Air Temp Water Temp Dewpoint Dewpoint Depression Visibility Wind Speed Wind Dir Waves Ship Positions

Ruby Princess

Last reported at 2018-Jul-22 07:00 UTC. Time now 2018-Jul-22 06:59 UTC.
Position N 48°38' W 125°31'.

Length 289 m; draft 8.7 m.

Type: Ship. MMSI: 310567000.

Date/timePositionNaut miles runAvg speedWind from/ knotsBaromVisibWave heightAir tempDewpointWater temp
2018-Jul-22 07:00N 48°38' W 125°31'1121.8
2018-Jul-22 06:30N 48°33' W 125°17'1121.7
2018-Jul-22 06:00N 48°32' W 125°01'1122.5
2018-Jul-22 05:30N 48°30' W 124°44'1122.2
2018-Jul-22 05:00N 48°26' W 124°28'1121.9
2018-Jul-22 04:30N 48°22' W 124°13'1122.0
2018-Jul-22 04:00N 48°18' W 123°58'1221.6
2018-Jul-22 03:27N 48°16' W 123°40'1220.1
2018-Jul-22 02:50N 48°10' W 123°23'513.4
2018-Jul-22 02:27N 48°11' W 123°15'817.1
2018-Jul-22 02:00N 48°06' W 123°06'7413.7 240 / 201022.810.8 13.011.112.0
2018-Jul-22 01:58N 48°12' W 123°02'1020.5
2018-Jul-22 01:30N 48°11' W 122°47'1019.9
2018-Jul-22 01:00N 48°03' W 122°38'1020.7
2018-Jul-22 00:30N 47°55' W 122°30'1019.9
2018-Jul-22 00:00N 47°45' W 122°26'815.8
2018-Jul-21 23:30N 47°37' W 122°25'1 2.3
2018-Jul-21 22:59N 47°38' W 122°23'0 0.0
2018-Jul-21 22:29N 47°38' W 122°23'0 0.0
2018-Jul-21 21:58N 47°38' W 122°23'0 0.0
2018-Jul-21 21:28N 47°38' W 122°23'0 0.0
2018-Jul-21 20:58N 47°38' W 122°23'0 0.0
2018-Jul-21 20:28N 47°38' W 122°23'0 0.0
2018-Jul-21 20:01N 47°38' W 122°23'0 0.0
2018-Jul-21 19:30N 47°38' W 122°23'0 0.0
2018-Jul-21 19:00N 47°38' W 122°23'0 0.0
2018-Jul-21 18:30N 47°38' W 122°23'0 0.0
2018-Jul-21 18:00N 47°38' W 122°23'0 0.0
2018-Jul-21 17:29N 47°38' W 122°23'0 0.0
2018-Jul-21 16:59N 47°38' W 122°23'0 0.0
2018-Jul-21 16:29N 47°38' W 122°23'0 0.0
2018-Jul-21 15:59N 47°38' W 122°23'0 0.0
2018-Jul-21 15:29N 47°38' W 122°23'0 0.0
2018-Jul-21 14:58N 47°38' W 122°23'0 0.0
2018-Jul-21 14:28N 47°38' W 122°23'0 0.0
2018-Jul-21 13:58N 47°38' W 122°23'0 0.0
2018-Jul-21 13:28N 47°38' W 122°23'0 0.0
2018-Jul-21 13:00N 47°38' W 122°23'1 3.0
2018-Jul-21 12:30N 47°37' W 122°25'611.3
2018-Jul-21 12:00N 47°43' W 122°27'713.4
2018-Jul-21 11:31N 47°49' W 122°28'714.4
2018-Jul-21 11:01N 47°56' W 122°32'1013.9
2018-Jul-21 10:17N 48°05' W 122°39'713.4
2018-Jul-21 09:47N 48°10' W 122°46'514.4
2018-Jul-21 09:24N 48°11' W 122°54'816.6
2018-Jul-21 08:55N 48°12' W 123°06'717.0
2018-Jul-21 08:29N 48°11' W 123°17'12 9.4
2018-Jul-21 07:15N 48°21' W 123°25'3 0.6
2018-Jul-21 01:23N 48°24' W 123°24'4 9.4
2018-Jul-21 00:59N 48°21' W 123°24'1414.1
2018-Jul-21 00:01N 48°14' W 123°42'520.4
2018-Jul-20 23:47N 48°14' W 123°49'620.5
2018-Jul-20 23:30N 48°14' W 123°57'1020.5
2018-Jul-20 23:00N 48°19' W 124°11'1020.1
2018-Jul-20 22:30N 48°23' W 124°25'918.8
2018-Jul-20 22:00N 48°27' W 124°38'13794.9
2018-Jul-20 22:00N 48°18' W 124°24'2142.5 320 / 151022.310.8 12.510.611.0
2018-Jul-20 21:30N 48°29' W 124°51'918.4
2018-Jul-20 21:00N 48°29' W 125°05'919.1
2018-Jul-20 20:30N 48°32' W 125°18'1122.0
2018-Jul-20 20:00N 48°38' W 125°33'1122.1
2018-Jul-20 19:30N 48°43' W 125°47'1121.7
2018-Jul-20 19:01N 48°49' W 126°01'1121.5
2018-Jul-20 18:30N 48°55' W 126°14'1122.0
2018-Jul-20 18:00N 49°02' W 126°27'1121.9
2018-Jul-20 17:30N 49°08' W 126°41'1122.4
2018-Jul-20 17:00N 49°16' W 126°54'1122.7
2018-Jul-20 16:30N 49°23' W 127°08'1322.2
2018-Jul-20 15:56N 49°31' W 127°23'8122.5
2018-Jul-20 12:20N 50°30' W 128°48'1321.9
2018-Jul-20 11:43N 50°41' W 129°01'522.4
2018-Jul-20 11:29N 50°45' W 129°05'1122.1
2018-Jul-20 11:00N 50°55' W 129°13'1206.3
2018-Jul-20 11:00N 50°54' W 129°12'1224.9 320 / 151024.510.8 15.012.315.0
2018-Jul-20 10:30N 51°05' W 129°20'1121.9
2018-Jul-20 10:00N 51°15' W 129°27'1121.7
2018-Jul-20 09:30N 51°25' W 129°34'1321.5
2018-Jul-20 08:55N 51°37' W 129°43'921.6
2018-Jul-20 08:30N 51°45' W 129°48'11222.4
2018-Jul-20 03:31N 53°27' W 131°01'122.3
2018-Jul-20 03:27N 53°29' W 131°01'1021.9
2018-Jul-20 03:00N 53°39' W 131°01'3249.3
2018-Jul-20 03:00N 53°36' W 131°00'1428.3 290 / 221023.010.8 14.011.213.0
2018-Jul-20 02:30N 53°50' W 131°02'1122.3
2018-Jul-20 02:00N 54°01' W 131°02'1122.6
2018-Jul-20 01:30N 54°12' W 131°03'1122.4
2018-Jul-20 01:00N 54°23' W 131°11'1122.5
2018-Jul-20 00:30N 54°32' W 131°21'1222.3
2018-Jul-19 23:58N 54°42' W 131°32'81 6.2
2018-Jul-19 11:00N 55°54' W 132°36'10913.6 330 / 31023.810.8 12.510.614.0
2018-Jul-19 03:00N 57°18' W 134°42'6019.9 110 / 71022.510.8 12.310.8 9.0
2018-Jul-19 00:00N 58°12' W 135°30'513.2 290 / 51022.5 5.4 13.2 9.912.0
2018-Jul-18 23:35N 58°16' W 135°37'220.7
2018-Jul-18 23:30N 58°17' W 135°40'1019.6
2018-Jul-18 23:01N 58°21' W 135°57'713.0
2018-Jul-18 22:31N 58°27' W 136°00'816.0
2018-Jul-18 22:00N 58°35' W 136°04'918.6
2018-Jul-18 21:30N 58°43' W 136°14'0 0.0
2018-Jul-18 15:07N 58°42' W 136°14'218.0
2018-Jul-18 15:00N 58°41' W 136°11'5379.7
2018-Jul-18 15:00N 58°36' W 136°06'3 6.3 280 / 101020.010.8 10.0 9.010.0
2018-Jul-18 14:30N 58°33' W 136°04'1413.7
2018-Jul-18 13:30N 58°20' W 135°56'611.9
2018-Jul-18 13:00N 58°18' W 135°45'712.6
2018-Jul-18 12:28N 58°16' W 135°34'1811.9
2018-Jul-18 11:00N 58°06' W 135°06'42 1.7 210 / 151019.810.8 12.010.112.0
2018-Jul-17 11:00N 58°48' W 135°06'108 5.1 120 / 81018.810.8 11.811.213.0
2018-Jul-16 14:00N 57°06' W 134°00'4414.7 150 / 121015.7 5.4 11.4 9.4 8.0
2018-Jul-16 11:00N 56°24' W 134°24'16520.6 180 / 201017.8 5.4 11.010.610.0
2018-Jul-16 03:00N 53°42' W 133°30'8220.5 220 / 221021.710.8 14.013.114.0
2018-Jul-15 23:00N 52°30' W 132°24'7022.0 270 / 151023.710.8 15.5 9.815.0
2018-Jul-15 19:48N 51°39' W 131°05'1221.0
2018-Jul-15 19:14N 51°31' W 130°51'522.3
2018-Jul-15 19:00N 51°28' W 130°45'1122.0
2018-Jul-15 18:30N 51°20' W 130°32'1122.5
2018-Jul-15 18:00N 51°13' W 130°19'1122.4
2018-Jul-15 17:30N 51°05' W 130°06'1222.7
2018-Jul-15 16:59N 50°57' W 129°52'1022.2
2018-Jul-15 16:30N 50°50' W 129°40'1223.1
2018-Jul-15 15:58N 50°42' W 129°25'1022.4
2018-Jul-15 15:30N 50°35' W 129°13'1121.8
2018-Jul-15 15:00N 50°27' W 129°00'1122.2
2018-Jul-15 14:30N 50°20' W 128°48'1122.0
2018-Jul-15 14:00N 50°12' W 128°35'1121.8
2018-Jul-15 13:30N 50°05' W 128°22'1121.5
2018-Jul-15 13:00N 49°58' W 128°10'4321.4
2018-Jul-15 11:00N 49°30' W 127°19'160.4
2018-Jul-15 11:00N 49°30' W 127°18'1120.7 290 / 281018.210.8 12.510.611.0
2018-Jul-15 10:29N 49°23' W 127°05'1121.4
2018-Jul-15 09:58N 49°16' W 126°52'1021.8
2018-Jul-15 09:30N 49°10' W 126°40'1121.8
2018-Jul-15 09:00N 49°04' W 126°27'1122.0
2018-Jul-15 08:30N 48°57' W 126°13'1122.1
2018-Jul-15 08:00N 48°51' W 125°60'1122.6
2018-Jul-15 07:30N 48°44' W 125°46'1122.6
2018-Jul-15 07:01N 48°38' W 125°31'1223.4
2018-Jul-15 06:31N 48°31' W 125°17'1223.5
2018-Jul-15 06:00N 48°32' W 124°59'1223.5
2018-Jul-15 05:31N 48°30' W 124°41'1223.8
2018-Jul-15 05:01N 48°26' W 124°25'1223.3
2018-Jul-15 04:31N 48°21' W 124°09'1223.3
2018-Jul-15 04:00N 48°18' W 123°52'1223.3
2018-Jul-15 03:30N 48°16' W 123°35'1117.8
2018-Jul-15 02:52N 48°09' W 123°21'717.8
2018-Jul-15 02:28N 48°11' W 123°12'1019.7
2018-Jul-15 01:56N 48°12' W 122°56'1816.6
2018-Jul-15 00:52N 48°00' W 122°36'718.6
2018-Jul-15 00:30N 47°55' W 122°30'1019.5
2018-Jul-15 00:00N 47°46' W 122°26'917.2
2018-Jul-14 23:30N 47°37' W 122°26'2 4.0
2018-Jul-14 22:59N 47°38' W 122°23'0 0.0
2018-Jul-14 22:29N 47°38' W 122°23'0 0.0
2018-Jul-14 21:59N 47°38' W 122°23'0 0.0
2018-Jul-14 21:29N 47°38' W 122°23'0 0.0
2018-Jul-14 20:59N 47°38' W 122°23'0 0.0
2018-Jul-14 20:28N 47°38' W 122°23'0 0.0
2018-Jul-14 19:58N 47°38' W 122°23'0 0.0
2018-Jul-14 19:28N 47°38' W 122°23'0 0.0
2018-Jul-14 18:58N 47°38' W 122°23'0 0.0
2018-Jul-14 18:31N 47°38' W 122°23'0 0.0
2018-Jul-14 18:00N 47°38' W 122°23'0 0.0
2018-Jul-14 17:30N 47°38' W 122°23'0 0.0
2018-Jul-14 17:00N 47°38' W 122°23'0 0.0
2018-Jul-14 16:30N 47°38' W 122°23'0 0.0
2018-Jul-14 15:59N 47°38' W 122°23'0 0.0
2018-Jul-14 15:29N 47°38' W 122°23'0 0.0
2018-Jul-14 14:59N 47°38' W 122°23'0 0.0
2018-Jul-14 14:26N 47°38' W 122°23'0 0.0
2018-Jul-14 13:28N 47°38' W 122°23'0 0.0
2018-Jul-14 13:00N 47°38' W 122°23'1 2.8
2018-Jul-14 12:30N 47°37' W 122°25'612.0
2018-Jul-14 12:00N 47°43' W 122°28'714.0
2018-Jul-14 11:30N 47°50' W 122°28'714.5
2018-Jul-14 11:00N 47°57' W 122°33'815.7
2018-Jul-14 10:30N 48°03' W 122°39'3 6.7
2018-Jul-14 10:00N 48°06' W 122°42'4408.7 130 / 161019.810.8 12.510.610.0
2018-Jul-14 09:59N 48°10' W 122°46'816.9
2018-Jul-14 09:30N 48°12' W 122°57'816.5
2018-Jul-14 09:00N 48°12' W 123°10'815.5
2018-Jul-14 08:29N 48°10' W 123°22'1112.4
2018-Jul-14 07:37N 48°20' W 123°27'215.4
2018-Jul-14 07:29N 48°22' W 123°25'3 0.6
2018-Jul-14 01:36N 48°25' W 123°24'1 4.2
2018-Jul-14 01:17N 48°24' W 123°25'310.2
2018-Jul-14 00:59N 48°21' W 123°24'1715.8
2018-Jul-13 23:54N 48°14' W 123°47'820.2
2018-Jul-13 23:30N 48°15' W 123°59'1020.2
2018-Jul-13 23:00N 48°19' W 124°13'4250.7
2018-Jul-13 23:00N 48°18' W 124°18'815.8 320 / 201019.710.8 13.012.112.0
2018-Jul-13 22:30N 48°23' W 124°26'1019.8
2018-Jul-13 22:00N 48°28' W 124°40'918.8
2018-Jul-13 21:30N 48°29' W 124°54'1019.5
2018-Jul-13 21:01N 48°29' W 125°08'918.2
2018-Jul-13 20:30N 48°33' W 125°21'1019.1
2018-Jul-13 20:00N 48°38' W 125°33'1121.6
2018-Jul-13 19:30N 48°43' W 125°47'1121.0
2018-Jul-13 19:00N 48°49' W 126°01'1121.4
2018-Jul-13 18:30N 48°55' W 126°14'1121.4
2018-Jul-13 18:00N 49°02' W 126°27'1121.8
2018-Jul-13 17:30N 49°08' W 126°40'1122.1
2018-Jul-13 17:00N 49°15' W 126°54'1122.8
2018-Jul-13 16:31N 49°22' W 127°07'6922.5
2018-Jul-13 13:26N 50°10' W 128°25'2422.4
2018-Jul-13 12:22N 50°29' W 128°47'2222.5
2018-Jul-13 11:24N 50°47' W 129°07'922.0
2018-Jul-13 11:00N 50°54' W 129°13'8495.9
2018-Jul-13 11:00N 50°48' W 129°06'1938.5 340 / 201024.410.8 14.511.714.0
2018-Jul-13 10:30N 51°04' W 129°20'1122.1
2018-Jul-13 10:00N 51°15' W 129°27'1121.9
2018-Jul-13 09:30N 51°24' W 129°35'1122.8
2018-Jul-13 09:00N 51°35' W 129°41'1122.6
2018-Jul-13 08:30N 51°45' W 129°49'1121.9
2018-Jul-13 08:01N 51°55' W 129°56'1122.5
2018-Jul-13 07:30N 52°06' W 130°03'8721.9
2018-Jul-13 03:31N 53°26' W 131°01'122.7
2018-Jul-13 03:28N 53°27' W 131°01'1022.4
2018-Jul-13 03:01N 53°37' W 131°01'1222.7
2018-Jul-13 02:30N 53°49' W 131°02'1122.9
2018-Jul-13 02:00N 54°00' W 131°02'1122.6
2018-Jul-13 01:31N 54°11' W 131°03'1121.4
2018-Jul-13 01:00N 54°21' W 131°10'1121.4
2018-Jul-13 00:29N 54°30' W 131°20'1021.1
2018-Jul-13 00:00N 54°39' W 131°29'1515.2
2018-Jul-12 23:00N 54°54' W 131°36'69 5.7 160 / 111025.1 5.4 14.011.215.0
2018-Jul-12 11:00N 55°54' W 132°36'   050 / 91025.4 5.4 11.5 8.514.0

Dump ship's entire track history